Ibirataia, Brazil
Current Conditions -  °F | °C
As of 3:00 PM on Sunday 25 Jan 2015 (Local Time) from SBIL Reporting Station
Rain Showers Rain Showers  
Wind Chill: 82°   Ceiling: 7000
Heat Index: 87°   Visibility: 5mi
Dew Point: 72°   Wind: 6mph
Humidity: 70%   Direction: 50°NE
Pressure: NA   Gusts: NA
Location:  14.07°S, 39.64°W
Report Text: SBIL 251800Z 05005KT 8000 VCSH SCT025 FEW030TCU BKN070 28/22 Q1014
Loading
Personal Weather Stations






























Interactive Weather Map New forecast layout! Learn more

10-Day Weather Forecast

Advertisements
Track Severe Weather on mobile